Kalgoorlie-Boulder, Western Australia

08:12 PM AWST am 22. Oktober 2014 (GMT +0800)
Kalgoorlie-Boulder | Change Station
CLOSE
Current Station
Flughafen
Location: Kalgoorlie-Boulder,
Höhe: 1204 ft
Wetterstationen in der Umgebung

Höhe 1204 ft 30.78 °S, 121.45 °E | Updated 12 minutes ago

Clear
Heiter
81 °F
gefühlte 81 °F
N
15
Wind Wechselnd Wind aus Ost-Nordost

Heute
Max. -- | schwach -- °F
--% Regenrisiko
Gestern
Max. -- | schwach -- °F
Precip. -- inch
5:08 AM 6:09 PM
Letztes Viertel, 2% visible
Druck 29.89 inch
Sichtweite -9999.0 Meilen
Wolken
Taupunkt 46 °F
Feuchtigkeit 30%
Regen 0.00 inch
Schneehöhe Nicht verfügbar..
UV Nicht verfügbar..
Pollen Nicht verfügbar..
Luftqualität Nicht verfügbar..
Flu Activity Nicht verfügbar..
METAR YPKG 221200Z AUTO 07013KT //// // NCD 27/08 Q1012

More Conditions Fewer Conditions

Druck 29.89 inch
Sichtweite -9999.0 Meilen
Wolken
Taupunkt 46 °F
Feuchtigkeit 30%
Regen 0.00 inch
Schneehöhe Nicht verfügbar..
UV Nicht verfügbar..
Pollen Nicht verfügbar..
Luftqualität Nicht verfügbar..
Flu Activity Nicht verfügbar..
METAR YPKG 221200Z AUTO 07013KT //// // NCD 27/08 Q1012

More Conditions Fewer Conditions

10-Day Weather Forecast

Almanac

Astronomie

Oct. 22, 2014 Aufgang Untergang
Genaue Zeit 05:08 AWST 18:09 AWST
Bürgerliche Dämmerung 04:43 AWST 18:34 AWST
Nautische Dämmerung 04:14 AWST 19:03 AWST
Astronomische Dämmerung 03:43 AWST 19:34 AWST
Mond 04:01 AWST 16:42 AWST
Länge des sichtbaren Lichts 13h 50m
Tageslänge
13h 01m
Tomorrow will be 1m 47s longer.
Letztes Viertel, 2% of the Moon is Illuminated
Heute
Letztes Viertel
Okt 23
Neu
Okt 30
Erstes Viertel
Nov 6
Vollmond
Nov 14
Letztes Viertel

Gestrige Extrema

Country Highs Country Lows

Community

WunderPhotos

Upload Photos

1,763,906 Fotos hochgeladen!

Nearby

Schneehöhe

Not available.

Erdbebenaktivität

Stadt Distance Mag. Time & Date
No recent earthquake activity has been reported nearby.
Minimum magnitude displayed is 2.5.

küstennahe Wassertemperaturen

Ort Temperatur
Kein Stationsbericht

Wetterstationen in der Umgebung